Time;durP1;ratioP1;P1;durP2;ratioP2;P2;SDS_P1;SDS_P2;PMS_P1;PMS_P2;Temp;Humidity;BMP_temperature;BMP_pressure;BME280_temperature;BME280_humidity;BME280_pressure;Samples;Min_cycle;Max_cycle;Signal;HPM_P1;HPM_P2
2022/12/13 00:02:21;0.00;0.00;0.62;0.00;0.00;0.62;3.17;2.87;;;20.60;22.40;;;;;;2257637;61;20809;-63
2022/12/13 00:05:08;0.00;0.00;0.62;0.00;0.00;0.62;3.80;3.40;;;20.60;22.30;;;;;;2260875;61;20850;-64
2022/12/13 00:07:52;0.00;0.00;0.62;0.00;0.00;0.62;3.60;3.00;;;20.60;22.30;;;;;;2259802;61;20428;-64
2022/12/13 00:10:37;0.00;0.00;0.62;0.00;0.00;0.62;3.87;3.20;;;20.60;22.20;;;;;;2260787;61;20389;-62
2022/12/13 00:13:22;0.00;0.00;0.62;0.00;0.00;0.62;5.43;3.57;;;20.60;22.70;;;;;;2260469;61;20923;-63
2022/12/13 00:16:11;0.00;0.00;0.62;0.00;0.00;0.62;3.17;2.67;;;20.60;22.20;;;;;;2260916;61;20941;-65
2022/12/13 00:18:59;0.00;0.00;0.62;0.00;0.00;0.62;3.50;3.00;;;20.60;22.20;;;;;;2260889;61;20491;-65
2022/12/13 00:21:45;0.00;0.00;0.62;0.00;0.00;0.62;3.70;3.13;;;20.60;22.20;;;;;;2256430;61;20435;-67
2022/12/13 00:24:29;0.00;0.00;0.62;0.00;0.00;0.62;4.77;3.10;;;20.60;22.30;;;;;;2257513;61;20461;-67
2022/12/13 00:27:14;0.00;0.00;0.62;0.00;0.00;0.62;3.20;2.53;;;20.60;22.40;;;;;;2260938;61;20381;-68
2022/12/13 00:29:58;0.00;0.00;0.62;0.00;0.00;0.62;3.40;2.90;;;20.60;22.40;;;;;;2259845;61;20356;-66
2022/12/13 00:32:45;0.00;0.00;0.62;0.00;0.00;0.62;3.97;3.10;;;20.60;22.20;;;;;;2260681;61;20776;-67
2022/12/13 00:35:31;0.00;0.00;0.62;0.00;0.00;0.62;3.43;2.97;;;20.60;22.00;;;;;;2260511;61;20908;-67
2022/12/13 00:38:15;0.00;0.00;0.62;0.00;0.00;0.62;4.03;3.23;;;20.60;21.90;;;;;;2260715;61;20431;-66
2022/12/13 00:41:09;0.00;0.00;0.62;0.00;0.00;0.62;3.50;2.90;;;20.50;21.70;;;;;;2260838;61;20455;-67
2022/12/13 00:43:54;0.00;0.00;0.62;0.00;0.00;0.62;3.10;2.77;;;20.50;21.70;;;;;;2259856;61;20357;-64
2022/12/13 00:46:40;0.00;0.00;0.62;0.00;0.00;0.62;2.97;2.40;;;20.50;21.60;;;;;;2260498;61;20412;-65
2022/12/13 00:49:25;0.00;0.00;0.62;0.00;0.00;0.62;3.17;2.60;;;20.50;21.70;;;;;;2257614;61;20361;-66
2022/12/13 00:52:11;0.00;0.00;0.62;0.00;0.00;0.62;3.50;2.90;;;20.50;21.70;;;;;;2259704;61;20488;-67
2022/12/13 00:54:56;0.00;0.00;0.62;0.00;0.00;0.62;3.20;2.53;;;20.50;21.80;;;;;;2260625;61;20365;-66
2022/12/13 00:57:40;0.00;0.00;0.62;0.00;0.00;0.62;2.83;2.50;;;20.40;21.70;;;;;;2260364;61;20431;-67
2022/12/13 01:00:25;0.00;0.00;0.62;0.00;0.00;0.62;3.63;2.73;;;20.40;21.70;;;;;;2260631;61;20401;-69
2022/12/13 01:03:19;0.00;0.00;0.62;0.00;0.00;0.62;3.17;2.57;;;20.40;21.80;;;;;;2260949;61;20424;-67
2022/12/13 01:06:09;0.00;0.00;0.62;0.00;0.00;0.62;3.40;2.27;;;20.40;21.90;;;;;;2259739;61;20447;-66
2022/12/13 01:08:56;0.00;0.00;0.62;0.00;0.00;0.62;2.97;2.33;;;20.40;22.00;;;;;;2260578;61;20377;-65
2022/12/13 01:11:40;0.00;0.00;0.62;0.00;0.00;0.62;2.93;2.30;;;20.40;22.00;;;;;;2260441;61;20411;-65
2022/12/13 01:14:26;0.00;0.00;0.62;0.00;0.00;0.62;3.30;2.00;;;20.40;22.00;;;;;;2256355;61;20360;-65
2022/12/13 01:17:11;0.00;0.00;0.62;0.00;0.00;0.62;2.70;2.30;;;20.40;22.00;;;;;;2260588;61;20469;-67
2022/12/13 01:19:56;0.00;0.00;0.62;0.00;0.00;0.62;2.97;2.43;;;20.40;22.10;;;;;;2260339;61;20393;-65
2022/12/13 01:22:41;0.00;0.00;0.62;0.00;0.00;0.62;2.70;2.20;;;20.40;22.10;;;;;;2257316;61;20361;-68
2022/12/13 01:25:27;0.00;0.00;0.62;0.00;0.00;0.62;2.73;2.33;;;20.40;22.10;;;;;;2260901;61;20408;-66
2022/12/13 01:28:11;0.00;0.00;0.62;0.00;0.00;0.62;2.80;2.27;;;20.30;22.00;;;;;;2259534;61;20993;-66
2022/12/13 01:30:57;0.00;0.00;0.62;0.00;0.00;0.62;3.57;2.43;;;20.30;22.00;;;;;;2260759;61;20446;-68
2022/12/13 01:33:42;0.00;0.00;0.62;0.00;0.00;0.62;3.40;1.80;;;20.30;22.00;;;;;;2260635;61;20345;-67
2022/12/13 01:36:29;0.00;0.00;0.62;0.00;0.00;0.62;3.03;2.30;;;20.30;22.00;;;;;;2259194;61;20419;-66
2022/12/13 01:39:18;0.00;0.00;0.62;0.00;0.00;0.62;2.50;1.97;;;20.30;22.00;;;;;;2260731;61;20968;-65
2022/12/13 01:42:04;0.00;0.00;0.62;0.00;0.00;0.62;3.10;2.60;;;20.30;22.00;;;;;;2260228;61;21019;-66
2022/12/13 01:45:21;0.00;0.00;0.62;0.00;0.00;0.62;2.70;1.90;;;20.30;22.00;;;;;;2260614;61;20500;-67
2022/12/13 01:48:11;0.00;0.00;0.62;0.00;0.00;0.62;2.50;2.20;;;20.30;22.00;;;;;;2260642;61;20393;-66
2022/12/13 01:51:01;0.00;0.00;0.62;0.00;0.00;0.62;2.40;1.90;;;20.30;22.10;;;;;;2259188;61;20412;-66
2022/12/13 01:53:48;0.00;0.00;0.62;0.00;0.00;0.62;2.90;2.20;;;20.30;22.10;;;;;;2260719;61;20483;-68
2022/12/13 01:56:37;0.00;0.00;0.62;0.00;0.00;0.62;2.70;2.30;;;20.30;22.10;;;;;;2260363;61;20376;-67
2022/12/13 01:59:23;0.00;0.00;0.62;0.00;0.00;0.62;2.40;2.00;;;20.20;22.00;;;;;;2260109;61;20373;-68
2022/12/13 02:02:10;0.00;0.00;0.62;0.00;0.00;0.62;2.47;2.00;;;20.20;22.00;;;;;;2260545;61;20842;-67
2022/12/13 02:05:07;0.00;0.00;0.62;0.00;0.00;0.62;2.97;2.00;;;20.20;22.00;;;;;;2259316;61;20908;-66
2022/12/13 02:07:52;0.00;0.00;0.62;0.00;0.00;0.62;2.60;2.00;;;20.20;22.10;;;;;;2260604;61;20392;-64
2022/12/13 02:10:37;0.00;0.00;0.62;0.00;0.00;0.62;2.37;1.90;;;20.20;22.10;;;;;;2260663;61;20361;-68
2022/12/13 02:13:22;0.00;0.00;0.62;0.00;0.00;0.62;2.77;1.77;;;20.20;22.10;;;;;;2259427;61;20395;-65
2022/12/13 02:16:16;0.00;0.00;0.62;0.00;0.00;0.62;2.53;2.17;;;20.20;22.10;;;;;;2260491;61;20407;-66
2022/12/13 02:19:55;0.00;0.00;0.62;0.00;0.00;0.62;2.43;2.00;;;20.20;22.10;;;;;;2260043;61;20401;-66
2022/12/13 02:23:06;0.00;0.00;0.62;0.00;0.00;0.62;2.20;1.80;;;20.10;22.10;;;;;;2255688;61;20385;-66
2022/12/13 02:26:33;0.00;0.00;0.62;0.00;0.00;0.62;2.33;2.00;;;20.10;22.10;;;;;;2260173;61;20389;-66
2022/12/13 02:30:16;0.00;0.00;0.62;0.00;0.00;0.62;2.30;1.90;;;20.10;22.10;;;;;;2260224;61;20376;-66
2022/12/13 02:33:21;0.00;0.00;0.62;0.00;0.00;0.62;2.43;1.93;;;20.10;22.10;;;;;;2260374;61;20360;-67
2022/12/13 02:36:14;0.00;0.00;0.62;0.00;0.00;0.62;2.50;1.60;;;20.10;22.20;;;;;;2259407;61;20395;-66
2022/12/13 02:39:08;0.00;0.00;0.62;0.00;0.00;0.62;3.40;1.90;;;20.10;22.20;;;;;;2260286;61;20361;-67
2022/12/13 02:41:58;0.00;0.00;0.62;0.00;0.00;0.62;2.00;1.60;;;20.10;22.20;;;;;;2259360;61;20420;-66
2022/12/13 02:44:52;0.00;0.00;0.62;0.00;0.00;0.62;2.30;1.63;;;20.00;22.10;;;;;;2260607;61;20393;-68
2022/12/13 02:47:42;0.00;0.00;0.62;0.00;0.00;0.62;2.70;2.07;;;20.00;22.10;;;;;;2260369;61;20381;-67
2022/12/13 02:50:29;0.00;0.00;0.62;0.00;0.00;0.62;3.13;2.20;;;20.00;22.10;;;;;;2259185;61;20393;-67
2022/12/13 02:53:15;0.00;0.00;0.62;0.00;0.00;0.62;2.17;1.63;;;20.00;22.10;;;;;;2260392;61;20408;-65
2022/12/13 02:56:00;0.00;0.00;0.62;0.00;0.00;0.62;2.20;1.60;;;20.00;22.10;;;;;;2259828;61;20376;-68
2022/12/13 02:58:48;0.00;0.00;0.62;0.00;0.00;0.62;3.03;2.00;;;20.00;22.10;;;;;;2260579;61;20476;-66
2022/12/13 03:01:48;0.00;0.00;0.62;0.00;0.00;0.62;4.77;1.87;;;20.00;22.10;;;;;;2260238;61;20404;-68
2022/12/13 03:08:21;0.00;0.00;0.62;0.00;0.00;0.62;2.50;2.10;;;20.00;22.10;;;;;;2260713;61;20783;-67
2022/12/13 03:11:11;0.00;0.00;0.62;0.00;0.00;0.62;2.70;1.80;;;20.00;22.70;;;;;;2259270;61;20361;-68
2022/12/13 03:14:02;0.00;0.00;0.62;0.00;0.00;0.62;2.83;2.00;;;20.00;22.10;;;;;;2260407;61;20889;-67
2022/12/13 03:16:51;0.00;0.00;0.62;0.00;0.00;0.62;2.87;2.03;;;19.90;22.00;;;;;;2260284;61;20960;-68
2022/12/13 03:19:36;0.00;0.00;0.62;0.00;0.00;0.62;2.40;1.90;;;19.90;22.10;;;;;;2259338;61;20372;-66
2022/12/13 03:22:21;0.00;0.00;0.62;0.00;0.00;0.62;2.63;1.90;;;19.90;22.10;;;;;;2260319;61;20389;-65
2022/12/13 03:25:08;0.00;0.00;0.62;0.00;0.00;0.62;2.50;1.80;;;19.90;22.00;;;;;;2260783;61;20884;-67
2022/12/13 03:27:53;0.00;0.00;0.62;0.00;0.00;0.62;2.63;2.20;;;19.90;22.10;;;;;;2259565;61;20837;-67
2022/12/13 03:30:38;0.00;0.00;0.62;0.00;0.00;0.62;2.27;1.70;;;19.90;22.10;;;;;;2260374;61;20396;-65
2022/12/13 03:33:23;0.00;0.00;0.62;0.00;0.00;0.62;2.43;1.80;;;19.90;22.10;;;;;;2259257;61;20492;-66
2022/12/13 03:36:10;0.00;0.00;0.62;0.00;0.00;0.62;2.23;1.80;;;19.90;22.10;;;;;;2259959;61;20449;-67
2022/12/13 03:38:55;0.00;0.00;0.62;0.00;0.00;0.62;2.23;2.00;;;19.90;22.10;;;;;;2260419;61;20377;-65
2022/12/13 03:41:41;0.00;0.00;0.62;0.00;0.00;0.62;2.50;2.00;;;19.90;22.10;;;;;;2259065;61;20385;-67
2022/12/13 03:44:26;0.00;0.00;0.62;0.00;0.00;0.62;2.20;1.77;;;19.90;22.10;;;;;;2260292;61;20365;-66
2022/12/13 03:47:11;0.00;0.00;0.62;0.00;0.00;0.62;2.43;2.13;;;19.80;22.00;;;;;;2260333;61;20391;-68
2022/12/13 03:49:56;0.00;0.00;0.62;0.00;0.00;0.62;2.40;1.80;;;19.90;22.10;;;;;;2259200;61;20508;-66
2022/12/13 03:52:40;0.00;0.00;0.62;0.00;0.00;0.62;2.70;1.80;;;19.80;22.00;;;;;;2260308;61;20453;-66
2022/12/13 03:55:25;0.00;0.00;0.62;0.00;0.00;0.62;2.57;1.90;;;19.80;22.00;;;;;;2259512;61;20487;-65
2022/12/13 03:58:11;0.00;0.00;0.62;0.00;0.00;0.62;2.40;1.60;;;19.80;22.00;;;;;;2260067;61;20465;-67
2022/12/13 04:00:55;0.00;0.00;0.62;0.00;0.00;0.62;2.40;1.80;;;19.80;22.10;;;;;;2260461;61;20473;-65
2022/12/13 04:03:43;0.00;0.00;0.62;0.00;0.00;0.62;1.97;1.63;;;19.80;22.00;;;;;;2259132;61;20372;-66
2022/12/13 04:06:28;0.00;0.00;0.62;0.00;0.00;0.62;3.03;1.97;;;19.80;22.00;;;;;;2260148;61;20440;-66
2022/12/13 04:09:13;0.00;0.00;0.62;0.00;0.00;0.62;2.60;2.07;;;19.80;22.00;;;;;;2260236;61;20361;-65
2022/12/13 04:15:03;0.00;0.00;0.62;0.00;0.00;0.62;2.50;1.70;;;19.70;22.00;;;;;;2260393;61;20964;-66
2022/12/13 04:17:47;0.00;0.00;0.62;0.00;0.00;0.62;1.93;1.43;;;19.80;22.00;;;;;;2259198;61;20400;-68
2022/12/13 04:20:33;0.00;0.00;0.62;0.00;0.00;0.62;2.30;1.80;;;19.70;22.00;;;;;;2260181;61;20365;-69
2022/12/13 04:23:17;0.00;0.00;0.62;0.00;0.00;0.62;2.50;1.73;;;19.70;22.00;;;;;;2260360;61;20364;-68
2022/12/13 04:26:02;0.00;0.00;0.62;0.00;0.00;0.62;2.57;1.77;;;19.70;22.00;;;;;;2258721;61;20364;-67
2022/12/13 04:28:47;0.00;0.00;0.62;0.00;0.00;0.62;2.00;1.70;;;19.70;22.00;;;;;;2260235;61;20785;-67
2022/12/13 04:31:33;0.00;0.00;0.62;0.00;0.00;0.62;2.27;1.93;;;19.70;22.00;;;;;;2260218;61;20835;-64
2022/12/13 04:34:17;0.00;0.00;0.62;0.00;0.00;0.62;3.47;2.20;;;19.70;22.00;;;;;;2259227;61;20461;-67
2022/12/13 04:37:02;0.00;0.00;0.62;0.00;0.00;0.62;2.47;2.03;;;19.70;22.00;;;;;;2260099;61;20404;-69
2022/12/13 04:39:47;0.00;0.00;0.62;0.00;0.00;0.62;2.03;1.57;;;19.70;22.00;;;;;;2256441;61;20766;-67
2022/12/13 04:42:31;0.00;0.00;0.62;0.00;0.00;0.62;2.23;1.87;;;19.60;22.50;;;;;;2260103;61;20396;-67
2022/12/13 04:45:17;0.00;0.00;0.62;0.00;0.00;0.62;2.33;1.67;;;19.60;22.00;;;;;;2257009;61;20364;-68
2022/12/13 04:48:04;0.00;0.00;0.62;0.00;0.00;0.62;2.30;1.90;;;19.60;22.00;;;;;;2259410;61;20385;-68
2022/12/13 04:50:50;0.00;0.00;0.62;0.00;0.00;0.62;2.43;2.03;;;19.60;22.00;;;;;;2260913;61;20767;-67
2022/12/13 04:53:34;0.00;0.00;0.62;0.00;0.00;0.62;2.10;1.83;;;19.60;22.00;;;;;;2260566;61;20360;-68
2022/12/13 04:56:19;0.00;0.00;0.62;0.00;0.00;0.62;2.07;1.83;;;19.60;22.00;;;;;;2259522;61;20448;-68
2022/12/13 04:59:04;0.00;0.00;0.62;0.00;0.00;0.62;2.20;1.70;;;19.60;22.00;;;;;;2260855;61;20408;-67
2022/12/13 05:01:49;0.00;0.00;0.62;0.00;0.00;0.62;1.83;1.50;;;19.60;22.00;;;;;;2260165;61;20473;-66
2022/12/13 05:04:35;0.00;0.00;0.62;0.00;0.00;0.62;2.00;1.67;;;19.60;22.10;;;;;;2260800;61;20412;-67
2022/12/13 05:07:21;0.00;0.00;0.62;0.00;0.00;0.62;2.47;1.70;;;19.60;22.10;;;;;;2260718;61;20948;-68
2022/12/13 05:10:07;0.00;0.00;0.62;0.00;0.00;0.62;2.47;1.73;;;19.60;22.00;;;;;;2259224;61;20416;-68
2022/12/13 05:12:52;0.00;0.00;0.62;0.00;0.00;0.62;2.37;1.93;;;19.60;22.10;;;;;;2260807;61;20384;-69
2022/12/13 05:15:37;0.00;0.00;0.62;0.00;0.00;0.62;2.50;2.00;;;19.60;22.10;;;;;;2260412;61;20392;-67
2022/12/13 05:18:22;0.00;0.00;0.62;0.00;0.00;0.62;2.50;2.03;;;19.50;22.00;;;;;;2259550;61;20431;-66
2022/12/13 05:21:11;0.00;0.00;0.62;0.00;0.00;0.62;2.83;1.67;;;19.50;22.00;;;;;;2260723;61;20469;-66
2022/12/13 05:23:55;0.00;0.00;0.62;0.00;0.00;0.62;2.30;1.70;;;19.50;22.00;;;;;;2260492;61;20365;-65
2022/12/13 05:26:40;0.00;0.00;0.62;0.00;0.00;0.62;2.30;1.70;;;19.50;22.00;;;;;;2260633;61;20364;-65
2022/12/13 05:29:26;0.00;0.00;0.62;0.00;0.00;0.62;2.90;2.03;;;19.50;22.00;;;;;;2260657;61;20396;-66
2022/12/13 05:32:11;0.00;0.00;0.62;0.00;0.00;0.62;2.03;1.53;;;19.50;22.00;;;;;;2259477;61;20446;-66
2022/12/13 05:34:55;0.00;0.00;0.62;0.00;0.00;0.62;2.27;1.80;;;19.50;22.00;;;;;;2260666;61;20492;-67
2022/12/13 05:37:41;0.00;0.00;0.62;0.00;0.00;0.62;2.40;1.73;;;19.50;22.00;;;;;;2260475;61;20443;-65
2022/12/13 05:40:28;0.00;0.00;0.62;0.00;0.00;0.62;1.87;1.40;;;19.50;22.10;;;;;;2259652;61;20364;-67
2022/12/13 05:43:13;0.00;0.00;0.62;0.00;0.00;0.62;2.40;1.80;;;19.50;22.10;;;;;;2260907;61;20743;-66
2022/12/13 05:45:58;0.00;0.00;0.62;0.00;0.00;0.62;2.43;1.57;;;19.50;22.10;;;;;;2257300;61;20369;-67
2022/12/13 05:48:43;0.00;0.00;0.62;0.00;0.00;0.62;1.97;1.63;;;19.50;22.70;;;;;;2260071;61;20381;-66
2022/12/13 05:51:27;0.00;0.00;0.62;0.00;0.00;0.62;2.70;2.40;;;19.40;22.00;;;;;;2260614;61;20361;-66
2022/12/13 05:54:14;0.00;0.00;0.62;0.00;0.00;0.62;13.13;9.60;;;19.50;21.90;;;;;;2259426;61;20404;-68
2022/12/13 05:56:58;0.00;0.00;0.62;0.00;0.00;0.62;15.43;12.73;;;19.40;19.80;;;;;;2260591;61;20469;-67
2022/12/13 05:59:43;0.00;0.00;0.62;0.00;0.00;0.62;15.57;13.87;;;19.30;18.30;;;;;;2260409;61;20908;-67
2022/12/13 06:02:27;0.00;0.00;0.62;0.00;0.00;0.62;15.63;13.00;;;19.10;17.70;;;;;;2259417;61;20443;-67
2022/12/13 06:05:12;0.00;0.00;0.62;0.00;0.00;0.62;18.90;15.90;;;18.80;16.80;;;;;;2259548;61;20377;-68
2022/12/13 06:07:57;0.00;0.00;0.62;0.00;0.00;0.62;18.77;15.50;;;18.50;16.20;;;;;;2260532;61;20928;-67
2022/12/13 06:10:43;0.00;0.00;0.62;0.00;0.00;0.62;18.80;14.57;;;18.10;15.80;;;;;;2259569;61;20404;-65
2022/12/13 06:13:28;0.00;0.00;0.62;0.00;0.00;0.62;18.67;13.50;;;17.80;15.50;;;;;;2260561;61;20484;-65
2022/12/13 06:16:13;0.00;0.00;0.62;0.00;0.00;0.62;14.10;11.83;;;17.50;16.50;;;;;;2255981;61;20392;-63
2022/12/13 06:18:57;0.00;0.00;0.62;0.00;0.00;0.62;14.90;11.27;;;17.20;17.20;;;;;;2260563;61;20350;-64
2022/12/13 06:21:42;0.00;0.00;0.62;0.00;0.00;0.62;13.40;11.30;;;17.10;17.80;;;;;;2260530;61;20432;-65
2022/12/13 06:24:26;0.00;0.00;0.62;0.00;0.00;0.62;13.57;10.07;;;17.00;18.30;;;;;;2259695;61;20360;-70
2022/12/13 06:27:12;0.00;0.00;0.62;0.00;0.00;0.62;15.20;11.13;;;16.90;19.00;;;;;;2260260;61;20827;-68
2022/12/13 06:29:57;0.00;0.00;0.62;0.00;0.00;0.62;13.73;10.63;;;16.90;19.10;;;;;;2260515;61;20364;-70
2022/12/13 06:32:42;0.00;0.00;0.62;0.00;0.00;0.62;11.00;9.80;;;16.90;19.50;;;;;;2259253;61;20372;-67
2022/12/13 06:35:26;0.00;0.00;0.62;0.00;0.00;0.62;9.40;7.83;;;16.90;19.70;;;;;;2260338;61;20448;-65
2022/12/13 06:38:12;0.00;0.00;0.62;0.00;0.00;0.62;8.73;7.60;;;17.00;19.90;;;;;;2260021;61;20377;-62
2022/12/13 06:41:07;0.00;0.00;0.62;0.00;0.00;0.62;9.60;7.30;;;17.00;20.00;;;;;;2260593;61;20427;-64
2022/12/13 06:43:53;0.00;0.00;0.62;0.00;0.00;0.62;9.03;7.10;;;17.10;20.10;;;;;;2257284;61;20361;-63
2022/12/13 06:46:37;0.00;0.00;0.62;0.00;0.00;0.62;8.10;6.43;;;17.10;20.10;;;;;;2259502;61;20388;-63
2022/12/13 06:49:22;0.00;0.00;0.62;0.00;0.00;0.62;8.47;6.97;;;17.20;20.20;;;;;;2260794;61;20364;-63
2022/12/13 06:52:08;0.00;0.00;0.62;0.00;0.00;0.62;6.83;6.10;;;17.20;20.30;;;;;;2260884;61;20353;-62
2022/12/13 06:54:53;0.00;0.00;0.62;0.00;0.00;0.62;7.07;5.17;;;17.30;20.40;;;;;;2259856;61;20407;-64
2022/12/13 06:57:38;0.00;0.00;0.62;0.00;0.00;0.62;6.30;5.57;;;17.30;20.40;;;;;;2260865;61;20912;-62
2022/12/13 07:00:24;0.00;0.00;0.62;0.00;0.00;0.62;6.60;5.23;;;17.40;21.00;;;;;;2260427;61;20356;-64
2022/12/13 07:03:10;0.00;0.00;0.62;0.00;0.00;0.62;9.80;5.70;;;17.40;20.40;;;;;;2260620;61;20360;-66
2022/12/13 07:05:55;0.00;0.00;0.62;0.00;0.00;0.62;6.50;5.33;;;17.40;20.50;;;;;;2260335;61;20357;-63
2022/12/13 07:08:40;0.00;0.00;0.62;0.00;0.00;0.62;8.87;6.07;;;17.50;20.60;;;;;;2259302;61;20782;-62
2022/12/13 07:11:28;0.00;0.00;0.62;0.00;0.00;0.62;5.20;4.63;;;17.50;20.60;;;;;;2260322;61;20483;-63
2022/12/13 07:14:13;0.00;0.00;0.62;0.00;0.00;0.62;6.10;4.43;;;17.50;20.60;;;;;;2260445;61;20372;-62
2022/12/13 07:16:59;0.00;0.00;0.62;0.00;0.00;0.62;6.17;4.97;;;17.60;20.70;;;;;;2259038;61;20385;-62
2022/12/13 07:19:43;0.00;0.00;0.62;0.00;0.00;0.62;5.27;4.40;;;17.60;20.70;;;;;;2260465;61;20369;-62
2022/12/13 07:22:28;0.00;0.00;0.62;0.00;0.00;0.62;8.40;5.13;;;17.60;20.70;;;;;;2259802;61;20388;-62
2022/12/13 07:25:13;0.00;0.00;0.62;0.00;0.00;0.62;4.27;3.77;;;17.70;20.80;;;;;;2260310;61;20385;-61
2022/12/13 07:28:00;0.00;0.00;0.62;0.00;0.00;0.62;4.83;3.80;;;17.70;20.80;;;;;;2260307;61;20960;-61
2022/12/13 07:30:45;0.00;0.00;0.62;0.00;0.00;0.62;5.23;4.50;;;17.70;20.90;;;;;;2259182;61;20352;-63
2022/12/13 07:33:32;0.00;0.00;0.62;0.00;0.00;0.62;4.57;4.07;;;17.80;21.00;;;;;;2260184;61;20385;-69
2022/12/13 07:36:20;0.00;0.00;0.62;0.00;0.00;0.62;4.70;4.13;;;17.80;21.00;;;;;;2260187;61;20353;-63
2022/12/13 07:39:04;0.00;0.00;0.62;0.00;0.00;0.62;5.30;4.60;;;17.80;21.00;;;;;;2259038;61;20891;-69
2022/12/13 07:41:53;0.00;0.00;0.62;0.00;0.00;0.62;5.17;3.90;;;17.90;21.20;;;;;;2260347;61;20389;-63
2022/12/13 07:44:37;0.00;0.00;0.62;0.00;0.00;0.62;5.63;4.10;;;17.90;21.20;;;;;;2260012;61;20361;-66
2022/12/13 07:47:24;0.00;0.00;0.62;0.00;0.00;0.62;4.00;3.43;;;17.90;21.20;;;;;;2260153;61;20801;-66
2022/12/13 07:50:11;0.00;0.00;0.62;0.00;0.00;0.62;4.83;3.60;;;17.90;21.20;;;;;;2257010;61;20947;-65
2022/12/13 07:52:56;0.00;0.00;0.62;0.00;0.00;0.62;5.60;4.50;;;17.90;21.20;;;;;;2259353;61;20456;-63
2022/12/13 07:55:41;0.00;0.00;0.62;0.00;0.00;0.62;4.33;3.87;;;18.00;21.40;;;;;;2260097;61;20396;-65
2022/12/13 07:58:28;0.00;0.00;0.62;0.00;0.00;0.62;4.43;3.90;;;18.00;21.40;;;;;;2260318;61;20919;-61
2022/12/13 08:01:12;0.00;0.00;0.62;0.00;0.00;0.62;6.13;4.07;;;18.00;21.40;;;;;;2259330;61;20777;-61
2022/12/13 08:03:57;0.00;0.00;0.62;0.00;0.00;0.62;5.97;3.83;;;18.10;21.40;;;;;;2260502;61;20896;-61
2022/12/13 08:06:43;0.00;0.00;0.62;0.00;0.00;0.62;4.30;3.60;;;18.10;21.50;;;;;;2260152;61;20794;-61
2022/12/13 08:09:28;0.00;0.00;0.62;0.00;0.00;0.62;3.90;3.10;;;18.10;21.50;;;;;;2256945;61;20527;-60
2022/12/13 08:12:14;0.00;0.00;0.62;0.00;0.00;0.62;4.23;3.00;;;18.20;21.50;;;;;;2260368;61;20360;-66
2022/12/13 08:14:58;0.00;0.00;0.62;0.00;0.00;0.62;5.87;3.73;;;18.20;21.50;;;;;;2259342;61;20893;-67
2022/12/13 08:17:45;0.00;0.00;0.62;0.00;0.00;0.62;4.93;3.67;;;18.20;21.50;;;;;;2260078;61;20381;-67
2022/12/13 08:20:29;0.00;0.00;0.62;0.00;0.00;0.62;3.80;3.40;;;18.20;21.50;;;;;;2260471;61;20365;-66
2022/12/13 08:23:16;0.00;0.00;0.62;0.00;0.00;0.62;4.10;3.70;;;18.20;21.50;;;;;;2259913;61;20855;-62
2022/12/13 08:26:02;0.00;0.00;0.62;0.00;0.00;0.62;3.37;2.97;;;18.20;22.10;;;;;;2260754;61;20373;-61
2022/12/13 08:28:47;0.00;0.00;0.62;0.00;0.00;0.62;3.90;3.50;;;18.30;21.60;;;;;;2260895;61;20407;-61
2022/12/13 08:31:32;0.00;0.00;0.62;0.00;0.00;0.62;6.50;3.37;;;18.30;21.60;;;;;;2260438;61;20798;-62
2022/12/13 08:34:16;0.00;0.00;0.62;0.00;0.00;0.62;4.00;3.60;;;18.30;21.50;;;;;;2260636;61;20360;-61
2022/12/13 08:37:01;0.00;0.00;0.62;0.00;0.00;0.62;4.80;3.33;;;18.30;21.50;;;;;;2259657;61;20384;-62
2022/12/13 08:39:47;0.00;0.00;0.62;0.00;0.00;0.62;4.33;3.83;;;18.30;21.50;;;;;;2260958;61;20364;-68
2022/12/13 08:42:32;0.00;0.00;0.62;0.00;0.00;0.62;3.70;3.23;;;18.40;21.60;;;;;;2260752;61;20408;-66
2022/12/13 08:45:16;0.00;0.00;0.62;0.00;0.00;0.62;4.13;3.10;;;18.40;21.60;;;;;;2259670;61;20494;-64
2022/12/13 08:48:02;0.00;0.00;0.62;0.00;0.00;0.62;4.33;3.17;;;18.40;21.60;;;;;;2260791;61;20385;-64
2022/12/13 08:50:47;0.00;0.00;0.62;0.00;0.00;0.62;3.90;3.30;;;18.40;21.70;;;;;;2260618;61;20802;-67
2022/12/13 08:53:31;0.00;0.00;0.62;0.00;0.00;0.62;4.17;3.53;;;18.50;21.80;;;;;;2260133;61;20428;-67
2022/12/13 08:56:17;0.00;0.00;0.62;0.00;0.00;0.62;3.77;3.20;;;18.50;22.30;;;;;;2260750;61;20916;-67
2022/12/13 08:59:02;0.00;0.00;0.62;0.00;0.00;0.62;4.00;3.60;;;18.50;21.80;;;;;;2259768;61;20423;-67
2022/12/13 09:01:47;0.00;0.00;0.62;0.00;0.00;0.62;3.93;3.03;;;18.50;21.80;;;;;;2260810;61;20385;-65
2022/12/13 09:04:31;0.00;0.00;0.62;0.00;0.00;0.62;4.77;3.63;;;18.60;21.90;;;;;;2261009;61;20365;-61
2022/12/13 09:07:15;0.00;0.00;0.62;0.00;0.00;0.62;4.37;3.60;;;18.60;21.90;;;;;;2259543;61;20404;-61
2022/12/13 09:10:00;0.00;0.00;0.62;0.00;0.00;0.62;3.70;2.83;;;18.60;21.90;;;;;;2260755;61;20420;-61
2022/12/13 09:12:46;0.00;0.00;0.62;0.00;0.00;0.62;4.13;2.73;;;18.70;21.90;;;;;;2260649;61;20917;-66
2022/12/13 09:15:32;0.00;0.00;0.62;0.00;0.00;0.62;3.90;2.93;;;18.70;21.90;;;;;;2259605;61;20423;-68
2022/12/13 09:18:17;0.00;0.00;0.62;0.00;0.00;0.62;3.97;3.10;;;18.70;21.90;;;;;;2260687;61;20440;-66
2022/12/13 09:21:06;0.00;0.00;0.62;0.00;0.00;0.62;3.33;3.00;;;18.70;21.90;;;;;;2258520;61;20555;-69
2022/12/13 09:23:58;0.00;0.00;0.62;0.00;0.00;0.62;3.30;2.60;;;18.80;22.00;;;;;;2260672;61;20416;-65
2022/12/13 09:26:42;0.00;0.00;0.62;0.00;0.00;0.62;3.90;2.97;;;18.80;22.00;;;;;;2260662;61;20357;-62
2022/12/13 09:29:29;0.00;0.00;0.62;0.00;0.00;0.62;4.00;3.10;;;18.90;22.00;;;;;;2256134;61;20423;-70
2022/12/13 09:32:13;0.00;0.00;0.62;0.00;0.00;0.62;4.10;2.60;;;18.90;22.00;;;;;;2260633;61;20369;-69
2022/12/13 09:34:58;0.00;0.00;0.62;0.00;0.00;0.62;3.60;3.03;;;18.90;22.00;;;;;;2260561;61;20420;-68
2022/12/13 09:37:43;0.00;0.00;0.62;0.00;0.00;0.62;4.27;3.60;;;18.90;22.00;;;;;;2259424;61;20381;-63
2022/12/13 09:40:29;0.00;0.00;0.62;0.00;0.00;0.62;4.50;3.03;;;19.00;22.10;;;;;;2260685;61;20362;-63
2022/12/13 09:43:23;0.00;0.00;0.62;0.00;0.00;0.62;3.73;3.20;;;19.00;22.00;;;;;;2256615;61;20392;-61
2022/12/13 09:46:21;0.00;0.00;0.62;0.00;0.00;0.62;3.40;2.63;;;19.10;22.10;;;;;;2260537;61;20361;-65
2022/12/13 09:49:13;0.00;0.00;0.62;0.00;0.00;0.62;3.97;2.90;;;19.10;22.10;;;;;;2260591;61;20504;-68
2022/12/13 09:52:01;0.00;0.00;0.62;0.00;0.00;0.62;3.00;2.60;;;19.20;22.10;;;;;;2259528;61;20349;-68
2022/12/13 09:54:47;0.00;0.00;0.62;0.00;0.00;0.62;3.97;3.17;;;19.10;21.90;;;;;;2260660;61;20767;-68
2022/12/13 09:57:32;0.00;0.00;0.62;0.00;0.00;0.62;3.87;3.47;;;19.20;21.90;;;;;;2257077;61;20796;-66
2022/12/13 10:00:20;0.00;0.00;0.62;0.00;0.00;0.62;4.20;3.47;;;19.20;21.80;;;;;;2260130;61;20992;-66
2022/12/13 10:03:14;0.00;0.00;0.62;0.00;0.00;0.62;3.90;2.63;;;19.20;21.80;;;;;;2260561;61;20388;-68
2022/12/13 10:06:10;0.00;0.00;0.62;0.00;0.00;0.62;4.10;3.50;;;19.30;21.90;;;;;;2259232;61;20400;-65
2022/12/13 10:08:59;0.00;0.00;0.62;0.00;0.00;0.62;3.33;2.80;;;19.30;21.90;;;;;;2260498;61;20372;-66
2022/12/13 10:11:49;0.00;0.00;0.62;0.00;0.00;0.62;3.30;2.87;;;19.30;21.90;;;;;;2260569;61;20349;-67
2022/12/13 10:14:41;0.00;0.00;0.62;0.00;0.00;0.62;3.10;2.40;;;19.30;21.90;;;;;;2259325;61;20404;-66
2022/12/13 10:17:35;0.00;0.00;0.62;0.00;0.00;0.62;3.30;2.80;;;19.40;21.90;;;;;;2260379;61;20428;-66
2022/12/13 10:20:24;0.00;0.00;0.62;0.00;0.00;0.62;3.20;2.67;;;19.40;21.90;;;;;;2259246;61;20478;-65
2022/12/13 10:23:10;0.00;0.00;0.62;0.00;0.00;0.62;3.53;2.97;;;19.40;21.80;;;;;;2257237;61;20381;-68
2022/12/13 10:25:55;0.00;0.00;0.62;0.00;0.00;0.62;3.50;2.77;;;19.40;21.80;;;;;;2260213;61;20377;-64
2022/12/13 10:28:41;0.00;0.00;0.62;0.00;0.00;0.62;3.60;2.90;;;19.50;22.40;;;;;;2259935;61;20376;-65
2022/12/13 10:31:26;0.00;0.00;0.62;0.00;0.00;0.62;3.80;3.00;;;19.50;21.80;;;;;;2260617;61;20353;-66
2022/12/13 10:34:21;0.00;0.00;0.62;0.00;0.00;0.62;2.70;2.40;;;19.50;21.80;;;;;;2260634;61;20408;-66
2022/12/13 10:37:25;0.00;0.00;0.62;0.00;0.00;0.62;3.50;2.67;;;19.50;21.80;;;;;;2259180;61;20381;-65
2022/12/13 10:40:29;0.00;0.00;0.62;0.00;0.00;0.62;3.43;2.60;;;19.50;21.80;;;;;;2260533;61;20365;-66
2022/12/13 10:43:16;0.00;0.00;0.62;0.00;0.00;0.62;3.80;3.10;;;19.50;21.90;;;;;;2259289;61;20791;-64
2022/12/13 10:46:02;0.00;0.00;0.62;0.00;0.00;0.62;3.13;2.53;;;19.50;21.80;;;;;;2260495;61;20437;-66
2022/12/13 10:48:49;0.00;0.00;0.62;0.00;0.00;0.62;3.97;2.93;;;19.60;21.90;;;;;;2260494;61;20397;-64
2022/12/13 10:51:39;0.00;0.00;0.62;0.00;0.00;0.62;3.83;2.80;;;19.50;21.80;;;;;;2259528;61;20822;-66
2022/12/13 10:54:29;0.00;0.00;0.62;0.00;0.00;0.62;2.90;2.03;;;19.50;21.70;;;;;;2260472;61;20365;-64
2022/12/13 10:57:15;0.00;0.00;0.62;0.00;0.00;0.62;2.97;1.83;;;19.60;22.30;;;;;;2259584;61;20978;-67
2022/12/13 11:00:00;0.00;0.00;0.62;0.00;0.00;0.62;2.80;2.50;;;19.60;21.80;;;;;;2257027;61;20356;-64
2022/12/13 11:02:54;0.00;0.00;0.62;0.00;0.00;0.62;3.17;2.67;;;19.60;21.70;;;;;;2260418;61;20801;-67
2022/12/13 11:05:39;0.00;0.00;0.62;0.00;0.00;0.62;3.10;2.80;;;19.60;21.70;;;;;;2255980;61;20424;-66
2022/12/13 11:08:26;0.00;0.00;0.62;0.00;0.00;0.62;3.63;2.50;;;19.70;21.70;;;;;;2260268;61;20436;-66